Time;durP1;ratioP1;P1;durP2;ratioP2;P2;SDS_P1;SDS_P2;PMS_P1;PMS_P2;Temp;Humidity;BMP_temperature;BMP_pressure;BME280_temperature;BME280_humidity;BME280_pressure;Samples;Min_cycle;Max_cycle;Signal;HPM_P1;HPM_P2
2022/08/17 00:00:25;;;;;;;43.08;38.80;;;18.50;89.50;;;;;;5054070;28;20476;-49
2022/08/17 00:03:21;;;;;;;40.85;36.78;;;18.50;89.60;;;;;;5061870;28;20363;-47
2022/08/17 00:05:50;;;;;;;50.83;45.60;;;18.50;89.60;;;;;;5051368;28;20132;-46
2022/08/17 00:08:20;;;;;;;47.38;42.55;;;18.50;89.70;;;;;;5061420;28;20461;-46
2022/08/17 00:10:46;;;;;;;;;;;18.60;90.10;;;;;;5059608;28;20031;-47
2022/08/17 00:13:29;;;;;;;45.65;40.67;;;18.60;89.90;;;;;;5067389;28;20599;-46
2022/08/17 00:15:58;;;;;;;38.92;34.72;;;18.60;89.80;;;;;;5058695;28;20034;-45
2022/08/17 00:18:26;;;;;;;38.50;34.60;;;18.60;89.80;;;;;;5057439;28;20430;-47
2022/08/17 00:20:53;;;;;;;37.03;33.28;;;18.60;89.60;;;;;;5049706;28;20029;-46
2022/08/17 00:23:19;;;;;;;34.58;31.15;;;18.50;89.30;;;;;;5058356;28;20392;-46
2022/08/17 00:25:46;;;;;;;39.67;35.70;;;18.40;89.30;;;;;;5067584;28;20033;-47
2022/08/17 00:28:14;;;;;;;36.25;32.63;;;18.30;89.30;;;;;;5067564;28;20478;-47
2022/08/17 00:30:41;;;;;;;33.50;30.30;;;18.30;89.40;;;;;;5061528;28;20784;-46
2022/08/17 00:33:14;;;;;;;35.67;32.28;;;18.30;89.50;;;;;;5055326;28;20094;-46
2022/08/17 00:35:41;;;;;;;39.03;35.10;;;18.30;89.50;;;;;;5062213;28;20111;-49
2022/08/17 00:38:08;;;;;;;34.38;30.80;;;18.20;89.40;;;;;;5068299;28;20056;-47
2022/08/17 00:40:59;;;;;;;37.40;33.70;;;18.20;89.50;;;;;;5045033;28;20021;-46
2022/08/17 00:43:35;;;;;;;35.63;31.95;;;18.20;89.50;;;;;;5048918;28;20020;-47
2022/08/17 00:46:07;;;;;;;36.55;32.95;;;18.10;89.50;;;;;;5057216;28;20064;-46
2022/08/17 00:48:34;;;;;;;36.72;32.95;;;18.10;89.50;;;;;;5067349;28;20349;-47
2022/08/17 00:51:12;;;;;;;41.33;37.10;;;18.10;89.70;;;;;;5065955;28;20032;-45
2022/08/17 00:53:41;;;;;;;38.63;34.70;;;18.10;90.00;;;;;;5030979;28;20438;-46
2022/08/17 00:56:10;;;;;;;38.70;33.20;;;18.10;90.10;;;;;;5049922;28;20027;-45
2022/08/17 00:58:37;;;;;;;35.00;31.45;;;18.00;90.10;;;;;;5068599;28;20025;-49
2022/08/17 01:01:05;;;;;;;33.92;30.52;;;18.00;90.20;;;;;;5043747;28;20029;-46
2022/08/17 01:03:31;;;;;;;35.15;31.52;;;18.10;90.20;;;;;;5048877;28;20108;-46
2022/08/17 01:06:00;;;;;;;31.05;27.85;;;18.00;90.00;;;;;;5065765;28;20380;-46
2022/08/17 01:08:28;;;;;;;38.28;34.30;;;18.00;89.90;;;;;;5066977;28;20028;-47
2022/08/17 01:10:56;;;;;;;39.28;35.22;;;18.00;89.90;;;;;;5065897;28;20038;-45
2022/08/17 01:13:23;;;;;;;36.97;32.92;;;18.00;89.90;;;;;;5048306;28;20033;-47
2022/08/17 01:16:04;;;;;;;33.90;30.50;;;18.00;89.80;;;;;;5039272;28;20017;-46
2022/08/17 01:18:31;;;;;;;32.97;29.60;;;18.00;89.70;;;;;;5068140;28;20111;-46
2022/08/17 01:21:04;;;;;;;34.35;30.67;;;18.00;89.70;;;;;;5048748;28;20032;-45
2022/08/17 01:23:29;;;;;;;33.55;30.15;;;18.00;89.80;;;;;;5057071;28;20036;-47
2022/08/17 01:26:00;;;;;;;31.52;28.38;;;18.00;89.70;;;;;;5067322;28;20407;-45
2022/08/17 01:28:29;;;;;;;30.30;27.35;;;18.00;89.70;;;;;;5043683;28;20081;-46
2022/08/17 01:30:58;;;;;;;36.47;32.83;;;18.00;89.60;;;;;;5059456;28;20025;-46
2022/08/17 01:33:23;;;;;;;31.60;28.50;;;18.00;89.70;;;;;;5048722;28;20822;-46
2022/08/17 01:35:49;;;;;;;30.77;27.80;;;17.90;89.60;;;;;;5054381;28;20028;-46
2022/08/17 01:38:18;;;;;;;28.73;25.83;;;17.90;89.50;;;;;;5070044;28;20113;-45
2022/08/17 01:40:50;;;;;;;31.97;28.67;;;17.90;89.60;;;;;;5052686;28;20060;-46
2022/08/17 01:43:21;;;;;;;34.47;31.02;;;17.90;89.50;;;;;;5071762;28;20348;-45
2022/08/17 01:45:50;;;;;;;35.05;31.55;;;17.90;89.60;;;;;;5049513;28;20186;-47
2022/08/17 01:48:16;;;;;;;33.28;29.98;;;17.80;89.90;;;;;;5051547;28;20025;-46
2022/08/17 01:50:48;;;;;;;28.65;25.55;;;17.80;90.00;;;;;;5026141;28;20029;-46
2022/08/17 01:53:18;;;;;;;31.42;28.20;;;17.90;90.00;;;;;;5060121;28;20036;-45
2022/08/17 01:55:49;;;;;;;;;;;17.80;89.80;;;;;;5071597;28;20500;-49
2022/08/17 01:58:15;;;;;;;29.35;26.25;;;17.80;89.80;;;;;;5061336;28;19909;-46
2022/08/17 02:00:43;;;;;;;28.58;25.73;;;17.70;89.80;;;;;;5036934;28;20025;-45
2022/08/17 02:03:09;;;;;;;28.75;24.55;;;17.70;89.80;;;;;;5043144;28;20491;-45
2022/08/17 02:05:36;;;;;;;24.27;22.05;;;17.70;89.70;;;;;;5034049;28;20031;-45
2022/08/17 02:08:03;;;;;;;20.25;18.30;;;17.70;89.60;;;;;;5065913;28;20041;-45
2022/08/17 02:10:31;;;;;;;22.15;20.02;;;17.60;89.50;;;;;;5069713;28;20091;-45
2022/08/17 02:12:58;;;;;;;19.57;17.67;;;17.60;89.40;;;;;;5060306;28;20025;-45
2022/08/17 02:15:24;;;;;;;25.88;19.23;;;17.60;89.30;;;;;;5053911;28;20025;-44
2022/08/17 02:17:52;;;;;;;20.02;18.02;;;17.50;89.00;;;;;;5045082;28;20021;-44
2022/08/17 02:20:21;;;;;;;19.75;17.75;;;17.40;89.00;;;;;;5017130;28;20430;-45
2022/08/17 02:22:48;;;;;;;20.90;18.65;;;17.40;89.10;;;;;;5051025;28;20132;-48
2022/08/17 02:25:18;;;;;;;38.08;22.80;;;17.40;89.10;;;;;;5071294;28;20040;-44
2022/08/17 02:27:43;;;;;;;24.40;22.05;;;17.40;89.30;;;;;;5055011;28;20059;-44
2022/08/17 02:30:12;;;;;;;26.35;23.63;;;17.40;89.50;;;;;;5042045;28;20033;-45
2022/08/17 02:32:39;;;;;;;33.17;26.27;;;17.40;89.50;;;;;;5036633;28;20081;-45
2022/08/17 02:35:07;;;;;;;32.05;28.25;;;17.40;89.50;;;;;;5050902;28;20033;-44
2022/08/17 02:37:34;;;;;;;31.15;27.83;;;17.40;89.60;;;;;;5063601;28;20369;-47
2022/08/17 02:40:02;;;;;;;36.00;30.17;;;17.40;89.70;;;;;;5055899;28;20339;-46
2022/08/17 02:42:35;;;;;;;41.03;34.38;;;17.40;89.70;;;;;;5062904;28;20462;-45
2022/08/17 02:45:04;;;;;;;34.45;29.75;;;17.40;89.60;;;;;;5069268;28;20044;-45
2022/08/17 02:47:30;;;;;;;31.60;27.83;;;17.40;89.60;;;;;;5065778;28;20033;-44
2022/08/17 02:49:55;;;;;;;33.10;29.58;;;17.40;89.60;;;;;;5052600;28;20438;-45
2022/08/17 02:52:21;;;;;;;35.85;31.92;;;17.30;89.60;;;;;;5063491;28;20066;-45
2022/08/17 02:54:49;;;;;;;33.78;28.05;;;17.30;89.50;;;;;;5068816;28;20052;-44
2022/08/17 02:57:15;;;;;;;32.13;28.75;;;17.30;89.60;;;;;;5069148;28;20028;-45
2022/08/17 02:59:41;;;;;;;32.53;29.02;;;17.20;89.60;;;;;;5051865;28;20110;-45
2022/08/17 03:02:10;;;;;;;31.88;28.45;;;17.30;89.70;;;;;;5034782;28;20025;-46
2022/08/17 03:04:37;;;;;;;28.42;25.40;;;17.20;89.80;;;;;;5055916;28;20028;-45
2022/08/17 03:07:04;;;;;;;30.92;27.17;;;17.20;89.80;;;;;;5045160;28;20037;-44
2022/08/17 03:09:30;;;;;;;32.08;28.80;;;17.20;89.90;;;;;;5067011;28;20854;-45
2022/08/17 03:12:07;;;;;;;28.95;25.95;;;17.20;89.90;;;;;;5062208;28;20036;-45
2022/08/17 03:14:37;;;;;;;32.53;29.27;;;17.20;89.90;;;;;;5053628;28;20021;-44
2022/08/17 03:17:04;;;;;;;29.60;26.63;;;17.10;89.80;;;;;;5054418;28;20021;-48
2022/08/17 03:19:32;;;;;;;34.45;29.27;;;17.10;89.80;;;;;;5060575;28;20017;-44
2022/08/17 03:22:00;;;;;;;31.77;28.40;;;17.10;89.70;;;;;;5058241;28;20016;-45
2022/08/17 03:24:28;;;;;;;33.97;30.55;;;17.10;89.90;;;;;;5069233;28;20033;-45
2022/08/17 03:26:54;;;;;;;36.83;33.03;;;17.10;89.90;;;;;;5067501;28;20418;-44
2022/08/17 03:29:22;;;;;;;32.72;29.38;;;17.00;89.90;;;;;;5053204;28;20046;-44
2022/08/17 03:31:51;;;;;;;30.88;27.73;;;17.10;90.00;;;;;;5058558;28;20050;-44
2022/08/17 03:34:17;;;;;;;30.27;26.90;;;17.00;89.90;;;;;;5052585;28;20078;-44
2022/08/17 03:36:43;;;;;;;29.63;26.73;;;17.00;89.80;;;;;;5034476;28;20358;-45
2022/08/17 03:39:08;;;;;;;29.88;27.00;;;17.00;89.60;;;;;;5049466;28;20045;-44
2022/08/17 03:41:35;;;;;;;31.50;28.27;;;17.00;89.70;;;;;;5064907;28;20033;-43
2022/08/17 03:44:00;;;;;;;29.45;26.55;;;17.00;89.50;;;;;;5049594;28;20067;-44
2022/08/17 03:57:27;;;;;;;31.08;27.95;;;16.90;89.90;;;;;;5049315;28;20040;-44
2022/08/17 03:59:53;;;;;;;29.85;26.95;;;16.90;89.90;;;;;;5049936;28;20025;-44
2022/08/17 04:02:31;;;;;;;31.95;28.73;;;16.90;89.80;;;;;;5046362;28;20042;-45
2022/08/17 04:04:57;;;;;;;34.28;30.77;;;16.90;89.80;;;;;;5054644;28;20032;-43
2022/08/17 04:07:28;;;;;;;34.42;30.42;;;16.90;89.90;;;;;;5059397;28;20075;-43
2022/08/17 04:09:54;;;;;;;37.35;33.28;;;16.90;90.10;;;;;;5059523;28;20051;-45
2022/08/17 04:12:22;;;;;;;36.22;32.38;;;16.90;90.00;;;;;;5065858;28;20433;-44
2022/08/17 04:14:47;;;;;;;39.30;34.78;;;17.00;90.20;;;;;;5067431;28;20036;-44
2022/08/17 04:17:13;;;;;;;38.90;34.80;;;17.00;90.30;;;;;;5063624;28;20082;-46
2022/08/17 04:19:39;;;;;;;39.40;35.42;;;17.10;90.30;;;;;;5047425;28;20039;-44
2022/08/17 04:22:05;;;;;;;44.42;39.95;;;17.20;90.30;;;;;;5064894;28;20492;-44
2022/08/17 04:24:31;;;;;;;49.65;44.42;;;17.30;90.40;;;;;;5066015;28;20032;-45
2022/08/17 04:27:01;;;;;;;47.67;43.05;;;17.40;90.50;;;;;;5062747;28;20104;-44
2022/08/17 04:29:27;;;;;;;48.17;43.47;;;17.40;90.50;;;;;;5067708;28;20107;-44
2022/08/17 04:31:53;;;;;;;55.92;50.20;;;17.50;90.60;;;;;;5065293;28;20423;-45
2022/08/17 04:34:19;;;;;;;52.90;47.92;;;17.60;90.60;;;;;;5033988;28;20032;-45
2022/08/17 04:36:45;;;;;;;55.88;50.60;;;17.70;90.70;;;;;;5064352;28;20024;-43
2022/08/17 04:39:13;;;;;;;63.25;56.78;;;17.80;90.80;;;;;;5068002;28;20422;-46
2022/08/17 04:44:23;;;;;;;66.45;59.90;;;17.90;90.90;;;;;;5056755;28;20114;-45
2022/08/17 04:46:48;;;;;;;59.13;53.42;;;18.00;90.80;;;;;;5033575;28;20028;-45
2022/08/17 04:49:14;;;;;;;67.82;60.95;;;18.10;91.00;;;;;;5051486;28;20469;-45
2022/08/17 04:51:43;;;;;;;58.38;52.53;;;18.10;90.90;;;;;;5037662;28;20067;-45
2022/08/17 04:54:18;;;;;;;59.93;54.10;;;18.20;90.90;;;;;;5062613;28;20072;-46
2022/08/17 04:56:44;;;;;;;56.00;50.35;;;18.30;90.90;;;;;;5059353;28;20307;-45
2022/08/17 04:59:16;;;;;;;56.63;51.05;;;18.40;90.90;;;;;;5061646;28;20044;-45
2022/08/17 05:01:44;;;;;;;57.25;51.35;;;18.40;91.00;;;;;;5042500;28;20477;-48
2022/08/17 05:04:15;;;;;;;63.03;56.70;;;18.50;90.90;;;;;;5038789;28;20051;-45
2022/08/17 05:06:41;;;;;;;61.95;55.50;;;18.50;90.80;;;;;;5045924;28;20491;-46
2022/08/17 05:09:07;;;;;;;63.85;57.97;;;18.60;91.00;;;;;;5032892;28;20037;-45
2022/08/17 05:11:34;;;;;;;54.58;49.03;;;18.60;90.90;;;;;;5048788;28;20069;-45
2022/08/17 05:13:59;;;;;;;53.30;48.13;;;18.70;90.80;;;;;;5050028;28;20123;-45
2022/08/17 05:16:27;;;;;;;54.42;49.15;;;18.80;91.00;;;;;;5046433;28;20100;-46
2022/08/17 05:18:57;;;;;;;67.15;60.13;;;18.80;91.00;;;;;;5056893;28;20033;-45
2022/08/17 05:21:24;;;;;;;68.75;61.95;;;18.90;91.30;;;;;;5060965;28;20024;-45
2022/08/17 05:23:52;;;;;;;69.90;63.03;;;19.10;91.20;;;;;;5060347;28;20881;-45
2022/08/17 05:26:20;;;;;;;59.05;53.25;;;19.10;91.30;;;;;;5053465;28;20173;-46
2022/08/17 05:28:46;;;;;;;78.38;70.15;;;19.20;91.30;;;;;;5055277;28;20037;-45
2022/08/17 05:31:14;;;;;;;93.85;83.55;;;19.40;91.60;;;;;;5051679;28;20028;-45
2022/08/17 05:33:42;;;;;;;98.47;88.38;;;19.60;91.80;;;;;;5052030;28;20067;-45
2022/08/17 05:36:11;;;;;;;86.70;77.60;;;19.70;91.90;;;;;;5066545;28;20032;-45
2022/08/17 05:38:37;;;;;;;91.32;82.00;;;19.80;92.00;;;;;;5066393;28;20024;-45
2022/08/17 05:41:07;;;;;;;85.57;77.15;;;19.90;92.00;;;;;;5051180;28;20033;-45
2022/08/17 05:43:38;;;;;;;87.45;78.70;;;19.90;92.00;;;;;;5051910;28;20044;-45
2022/08/17 05:46:20;;;;;;;76.93;69.30;;;20.00;91.90;;;;;;5052191;28;20052;-46
2022/08/17 05:48:56;;;;;;;79.18;71.32;;;20.10;92.00;;;;;;5051234;28;20029;-45
2022/08/17 05:52:06;;;;;;;87.88;78.35;;;20.10;92.00;;;;;;5067067;28;20037;-46
2022/08/17 05:55:12;;;;;;;80.65;72.40;;;20.10;91.90;;;;;;4970869;28;20034;-45
2022/08/17 05:57:43;;;;;;;74.68;66.97;;;20.20;92.00;;;;;;4963580;28;20030;-46
2022/08/17 06:00:38;;;;;;;75.13;67.05;;;20.30;92.00;;;;;;5035371;28;20078;-47
2022/08/17 06:03:31;;;;;;;75.53;68.15;;;20.30;91.90;;;;;;5040578;28;20042;-46
2022/08/17 06:06:07;;;;;;;74.72;67.20;;;20.40;92.00;;;;;;5049408;28;20025;-46
2022/08/17 06:09:08;;;;;;;64.35;57.85;;;20.50;91.90;;;;;;5069666;28;20470;-45
2022/08/17 06:12:10;;;;;;;60.85;55.08;;;20.60;91.80;;;;;;5018538;28;20052;-45
2022/08/17 06:14:54;;;;;;;67.65;60.95;;;20.70;91.80;;;;;;5025642;28;20049;-48
2022/08/17 06:17:23;;;;;;;66.03;59.55;;;20.80;91.60;;;;;;5067700;28;20029;-45
2022/08/17 06:19:53;;;;;;;;;;;20.80;91.40;;;;;;5047087;28;20067;-47
2022/08/17 06:22:22;;;;;;;65.55;58.80;;;20.80;91.40;;;;;;5055660;28;20289;-48
2022/08/17 06:24:59;;;;;;;61.63;55.47;;;20.90;91.40;;;;;;5051857;28;20090;-45
2022/08/17 06:27:39;;;;;;;67.60;60.55;;;20.90;91.40;;;;;;5053130;28;20119;-47
2022/08/17 06:30:11;;;;;;;53.92;48.58;;;21.00;91.30;;;;;;5050697;28;20410;-49
2022/08/17 06:32:40;;;;;;;53.10;48.10;;;21.00;91.10;;;;;;5043071;28;20034;-45
2022/08/17 06:35:08;;;;;;;62.20;55.93;;;21.10;91.10;;;;;;5059245;28;20028;-45
2022/08/17 06:38:00;;;;;;;57.03;51.72;;;21.10;91.00;;;;;;5064251;28;20378;-46
2022/08/17 06:40:44;;;;;;;58.00;52.20;;;21.20;91.00;;;;;;5066010;28;20055;-48
2022/08/17 06:43:31;;;;;;;50.60;45.30;;;21.20;90.90;;;;;;5024200;28;20087;-48
2022/08/17 06:46:06;;;;;;;47.85;43.45;;;21.30;90.70;;;;;;5055524;28;20083;-46
2022/08/17 06:49:10;;;;;;;49.25;44.53;;;21.40;90.90;;;;;;5068149;28;20039;-46
2022/08/17 06:51:51;;;;;;;44.00;39.67;;;21.40;90.60;;;;;;4967553;28;20177;-48
2022/08/17 06:54:36;;;;;;;47.30;43.03;;;21.50;90.70;;;;;;4954243;28;20051;-50
2022/08/17 06:57:27;;;;;;;41.65;37.65;;;21.50;90.30;;;;;;5011914;28;20327;-47
2022/08/17 07:00:18;;;;;;;39.45;34.70;;;21.70;90.40;;;;;;5067930;28;20567;-46
2022/08/17 07:02:46;;;;;;;37.42;33.72;;;21.80;89.80;;;;;;5055474;28;20102;-47
2022/08/17 07:05:15;;;;;;;34.63;31.35;;;21.80;89.40;;;;;;5051085;28;20027;-47
2022/08/17 07:08:11;;;;;;;32.25;28.63;;;21.80;89.00;;;;;;5059002;28;20705;-47
2022/08/17 07:10:44;;;;;;;31.30;28.08;;;21.90;89.00;;;;;;5033594;28;20041;-48
2022/08/17 07:13:36;;;;;;;35.28;32.00;;;21.90;88.90;;;;;;5056916;28;20086;-47
2022/08/17 07:16:26;;;;;;;42.60;38.80;;;22.00;88.60;;;;;;5061286;28;20048;-48
2022/08/17 07:18:54;;;;;;;39.03;35.30;;;22.00;88.60;;;;;;5063532;28;20114;-48
2022/08/17 07:21:57;;;;;;;36.97;33.42;;;22.10;88.30;;;;;;5048851;28;20028;-48
2022/08/17 07:24:46;;;;;;;39.33;35.72;;;22.10;88.40;;;;;;5055168;28;20036;-47
2022/08/17 07:27:22;;;;;;;38.28;34.70;;;22.20;87.70;;;;;;5065321;28;20030;-48
2022/08/17 07:29:52;;;;;;;35.08;31.45;;;22.20;87.60;;;;;;5068843;28;20078;-47
2022/08/17 07:32:26;;;;;;;33.38;30.05;;;22.30;88.20;;;;;;5034376;28;20039;-49
2022/08/17 07:35:09;;;;;;;34.25;30.15;;;22.30;87.70;;;;;;5068575;28;20471;-47
2022/08/17 07:37:37;;;;;;;33.13;29.92;;;22.30;87.50;;;;;;5062785;28;20035;-49
2022/08/17 07:40:32;;;;;;;32.88;29.73;;;22.40;87.60;;;;;;5041475;28;20095;-49
2022/08/17 07:43:04;;;;;;;29.80;26.77;;;22.50;87.80;;;;;;5064259;28;20050;-48
2022/08/17 07:48:21;;;;;;;32.55;29.42;;;22.50;87.00;;;;;;5058626;28;20098;-48
2022/08/17 07:50:47;;;;;;;34.17;30.70;;;22.40;86.70;;;;;;5064366;28;20028;-48
2022/08/17 07:53:22;;;;;;;39.25;31.55;;;22.40;87.00;;;;;;5066611;28;20111;-51
2022/08/17 07:55:49;;;;;;;33.40;30.00;;;22.40;87.30;;;;;;5049946;28;20048;-48
2022/08/17 07:58:17;;;;;;;34.97;28.33;;;22.60;87.40;;;;;;5043186;28;20056;-51
2022/08/17 08:00:47;;;;;;;32.75;29.48;;;22.80;86.80;;;;;;5044181;28;20469;-49
2022/08/17 08:03:15;;;;;;;30.40;27.15;;;22.90;85.80;;;;;;5059955;28;20028;-48
2022/08/17 08:05:54;;;;;;;27.90;25.27;;;23.10;85.40;;;;;;5041763;28;20036;-47
2022/08/17 08:08:29;;;;;;;;;;;23.40;85.20;;;;;;5066081;28;20032;-48
2022/08/17 08:11:32;;;;;;;25.38;21.95;;;23.40;84.00;;;;;;5040258;28;19965;-47
2022/08/17 08:14:31;;;;;;;26.50;21.92;;;23.40;83.90;;;;;;5039120;28;20094;-48
2022/08/17 08:17:03;;;;;;;27.60;22.75;;;23.70;83.80;;;;;;5052430;28;20417;-48
2022/08/17 08:19:30;;;;;;;23.92;19.83;;;23.90;83.40;;;;;;5046758;28;20076;-50
2022/08/17 08:22:06;;;;;;;20.98;16.98;;;24.10;82.20;;;;;;5054124;28;20020;-47
2022/08/17 08:24:50;;;;;;;20.70;18.75;;;24.40;82.70;;;;;;5063916;28;20116;-47
2022/08/17 08:27:39;;;;;;;23.50;19.05;;;24.70;79.90;;;;;;5029856;28;20119;-50
2022/08/17 08:30:13;;;;;;;22.85;15.90;;;24.80;79.40;;;;;;5036708;28;20032;-52
2022/08/17 08:33:03;;;;;;;17.88;16.25;;;24.80;80.10;;;;;;5054201;28;20056;-47
2022/08/17 08:35:36;;;;;;;19.42;17.23;;;24.90;80.80;;;;;;5047643;28;20028;-49
2022/08/17 08:38:22;;;;;;;17.52;14.27;;;25.20;80.90;;;;;;5067280;28;20457;-48
2022/08/17 08:40:56;;;;;;;22.10;16.67;;;25.40;78.20;;;;;;5062613;28;20085;-46
2022/08/17 08:43:28;;;;;;;17.10;15.48;;;25.70;76.10;;;;;;5071534;28;20024;-47
2022/08/17 08:46:19;;;;;;;16.05;14.43;;;25.80;74.80;;;;;;5054078;28;20102;-48
2022/08/17 08:49:00;;;;;;;17.33;14.82;;;25.40;74.80;;;;;;5064885;28;20555;-47
2022/08/17 08:51:34;;;;;;;16.02;14.32;;;25.30;76.80;;;;;;5068796;28;20042;-47
2022/08/17 08:54:30;;;;;;;16.02;13.98;;;25.10;75.50;;;;;;5065179;28;20103;-47
2022/08/17 08:57:23;;;;;;;18.02;16.15;;;24.90;76.80;;;;;;5063680;28;20063;-47
2022/08/17 09:00:13;;;;;;;20.02;17.35;;;24.50;78.20;;;;;;5058258;28;20083;-47
2022/08/17 09:03:04;;;;;;;19.48;16.20;;;24.30;78.90;;;;;;5024528;28;20406;-47
2022/08/17 09:05:32;;;;;;;20.02;16.33;;;24.20;79.60;;;;;;5065658;28;20029;-47
2022/08/17 09:08:16;;;;;;;21.97;17.63;;;23.90;80.40;;;;;;5051409;28;20021;-47
2022/08/17 09:11:04;;;;;;;20.23;17.23;;;23.90;80.50;;;;;;5051109;28;20041;-47
2022/08/17 09:13:43;;;;;;;15.50;13.98;;;23.80;80.90;;;;;;5064623;28;20039;-47
2022/08/17 09:16:29;;;;;;;17.77;15.95;;;23.70;81.40;;;;;;5066184;28;20523;-50
2022/08/17 09:19:28;;;;;;;15.25;13.60;;;23.90;81.00;;;;;;5070264;28;20024;-47
2022/08/17 09:22:02;;;;;;;16.05;13.02;;;24.10;80.40;;;;;;5027302;28;20041;-47
2022/08/17 09:24:42;;;;;;;16.67;13.95;;;24.30;80.20;;;;;;5057130;28;20037;-48
2022/08/17 09:27:17;;;;;;;15.88;13.63;;;24.30;79.70;;;;;;5065355;28;20094;-47
2022/08/17 09:29:49;;;;;;;19.95;13.50;;;24.30;79.50;;;;;;5067749;28;20052;-47
2022/08/17 09:32:29;;;;;;;13.85;11.95;;;24.30;79.60;;;;;;5058097;28;20073;-50
2022/08/17 09:35:00;;;;;;;14.80;13.05;;;24.20;79.30;;;;;;5070216;28;20028;-47
2022/08/17 09:37:44;;;;;;;18.30;13.40;;;24.20;79.00;;;;;;5069921;28;20027;-48
2022/08/17 09:40:18;;;;;;;18.15;12.38;;;24.10;79.30;;;;;;5042201;28;20516;-50
2022/08/17 09:42:47;;;;;;;15.50;13.98;;;23.90;79.90;;;;;;5045775;28;20040;-47
2022/08/17 09:45:31;;;;;;;16.20;13.65;;;23.90;79.90;;;;;;5058330;28;20104;-47
2022/08/17 09:48:26;;;;;;;14.10;12.65;;;23.90;79.30;;;;;;5073583;28;20032;-48
2022/08/17 09:51:32;;;;;;;19.33;14.25;;;23.90;79.50;;;;;;5065418;28;20035;-49
2022/08/17 09:54:00;;;;;;;15.85;13.73;;;23.70;81.00;;;;;;5039286;28;20484;-49
2022/08/17 09:56:51;;;;;;;17.98;16.38;;;23.70;81.00;;;;;;5068257;28;20508;-52
2022/08/17 09:59:35;;;;;;;18.77;16.90;;;23.60;81.20;;;;;;5067722;28;20047;-47
2022/08/17 10:02:08;;;;;;;17.35;15.82;;;23.40;82.20;;;;;;5044654;28;20028;-49
2022/08/17 10:04:48;;;;;;;19.15;17.23;;;23.20;82.10;;;;;;5061949;28;20519;-48
2022/08/17 10:07:45;;;;;;;19.63;17.70;;;23.00;82.70;;;;;;5054255;28;20033;-48
2022/08/17 10:10:19;;;;;;;18.85;16.80;;;23.00;83.30;;;;;;5048686;28;20020;-48
2022/08/17 10:13:05;;;;;;;20.88;18.98;;;22.90;83.20;;;;;;5040412;28;20039;-47
2022/08/17 10:15:39;;;;;;;17.58;15.88;;;22.90;83.20;;;;;;5061262;28;20029;-51
2022/08/17 10:18:23;;;;;;;19.25;16.08;;;22.90;83.00;;;;;;5061827;28;20052;-49
2022/08/17 10:27:34;;;;;;;16.73;15.05;;;22.90;83.90;;;;;;5068385;28;20092;-47
2022/08/17 10:30:04;;;;;;;19.35;17.38;;;22.90;83.40;;;;;;5015557;28;20033;-46
2022/08/17 10:32:35;;;;;;;;;;;22.90;83.40;;;;;;5038959;28;20094;-48
2022/08/17 10:35:24;;;;;;;22.70;20.40;;;22.80;83.60;;;;;;5034286;28;20007;-48
2022/08/17 10:38:27;;;;;;;22.57;20.40;;;22.70;84.10;;;;;;5060854;28;20029;-47
2022/08/17 10:40:59;;;;;;;27.08;17.92;;;22.80;84.60;;;;;;5062192;28;20123;-49
2022/08/17 10:44:03;;;;;;;21.88;18.83;;;22.80;84.60;;;;;;5065914;28;20505;-47
2022/08/17 10:47:06;;;;;;;20.88;18.98;;;22.80;84.10;;;;;;5040258;28;20040;-46
2022/08/17 10:49:35;;;;;;;22.48;18.50;;;22.70;84.00;;;;;;5048621;28;20051;-46
2022/08/17 10:52:25;;;;;;;;;;;22.90;84.40;;;;;;5030643;28;20036;-47
2022/08/17 10:54:55;;;;;;;;;;;22.90;84.20;;;;;;5040060;28;19924;-46
2022/08/17 10:57:30;;;;;;;22.30;20.23;;;22.90;84.30;;;;;;5036259;28;19913;-47
2022/08/17 10:59:59;;;;;;;20.77;18.40;;;22.90;83.80;;;;;;5049096;28;20032;-47
2022/08/17 11:02:30;;;;;;;24.95;20.23;;;22.90;84.00;;;;;;5011837;28;20065;-48
2022/08/17 11:04:59;;;;;;;23.35;21.05;;;23.00;84.30;;;;;;5019685;28;20030;-48
2022/08/17 11:07:44;;;;;;;22.50;18.40;;;23.40;84.10;;;;;;5040296;28;20040;-48
2022/08/17 11:10:16;;;;;;;22.15;17.17;;;23.90;83.60;;;;;;5047547;28;20025;-50
2022/08/17 11:13:06;;;;;;;22.33;20.23;;;24.10;81.60;;;;;;5039918;28;20029;-48
2022/08/17 11:15:40;;;;;;;23.38;21.05;;;23.90;80.40;;;;;;5041971;28;20395;-50
2022/08/17 11:18:51;;;;;;;22.67;20.23;;;23.80;81.20;;;;;;5037754;28;20060;-46
2022/08/17 11:21:37;;;;;;;23.70;21.52;;;23.60;81.70;;;;;;5028105;28;20033;-48
2022/08/17 11:24:10;;;;;;;27.35;24.73;;;23.50;82.50;;;;;;5036273;28;20034;-46
2022/08/17 11:26:45;;;;;;;24.52;22.20;;;23.60;81.30;;;;;;5044584;28;20016;-49
2022/08/17 11:29:44;;;;;;;22.33;20.02;;;23.60;82.30;;;;;;5048471;28;20437;-47
2022/08/17 11:32:26;;;;;;;23.48;21.00;;;23.90;82.60;;;;;;5015965;28;20052;-48
2022/08/17 11:35:11;;;;;;;20.00;18.05;;;23.80;81.20;;;;;;5020780;28;20036;-46
2022/08/17 11:38:04;;;;;;;22.60;17.17;;;23.80;81.60;;;;;;5021686;28;20037;-46
2022/08/17 11:41:04;;;;;;;21.00;18.77;;;23.80;82.10;;;;;;5046525;28;20037;-48
2022/08/17 11:43:45;;;;;;;19.83;16.33;;;23.90;81.50;;;;;;5030994;28;20034;-46
2022/08/17 11:46:23;;;;;;;20.48;16.35;;;24.10;81.40;;;;;;5019688;28;20052;-48
2022/08/17 11:51:51;;;;;;;23.08;19.23;;;24.00;80.30;;;;;;5039200;28;20094;-48
2022/08/17 11:54:17;;;;;;;23.85;21.40;;;23.90;80.70;;;;;;5048694;28;20071;-46
2022/08/17 11:56:46;;;;;;;24.30;21.02;;;23.90;81.50;;;;;;5047604;28;20418;-47
2022/08/17 11:59:44;;;;;;;24.50;22.25;;;23.70;81.80;;;;;;5036386;28;20029;-46
2022/08/17 12:02:20;;;;;;;26.67;23.95;;;23.60;83.00;;;;;;5035092;28;20055;-51
2022/08/17 12:05:24;;;;;;;25.85;23.17;;;23.50;82.70;;;;;;5035111;28;20032;-48
2022/08/17 12:08:20;;;;;;;25.33;22.92;;;23.60;83.00;;;;;;5044468;28;20083;-46
2022/08/17 12:11:00;;;;;;;26.27;23.70;;;23.60;83.10;;;;;;5045299;28;20044;-46
2022/08/17 12:13:28;;;;;;;21.20;19.27;;;23.80;82.80;;;;;;5044631;28;20029;-48
2022/08/17 12:15:57;;;;;;;24.73;22.48;;;23.80;82.70;;;;;;5045403;28;20108;-47
2022/08/17 12:18:36;;;;;;;31.90;22.48;;;23.70;82.00;;;;;;5037152;28;20036;-46
2022/08/17 12:21:36;;;;;;;24.88;22.45;;;23.70;81.80;;;;;;5044679;28;20133;-47
2022/08/17 12:24:25;;;;;;;23.02;20.90;;;23.70;82.30;;;;;;5025776;28;20043;-47
2022/08/17 12:27:03;;;;;;;21.23;19.27;;;23.50;82.80;;;;;;5044057;28;20128;-46
2022/08/17 12:29:30;;;;;;;23.05;20.55;;;23.40;82.90;;;;;;5045533;28;20036;-48
2022/08/17 12:31:57;;;;;;;21.88;19.60;;;23.40;83.00;;;;;;5027912;28;20028;-47
2022/08/17 12:34:38;;;;;;;26.23;18.25;;;23.30;83.40;;;;;;5048056;28;20071;-46
2022/08/17 12:37:14;;;;;;;23.52;17.92;;;23.30;83.80;;;;;;5025628;28;20025;-46
2022/08/17 12:39:53;;;;;;;19.33;17.15;;;23.50;84.10;;;;;;5051003;28;20017;-46
2022/08/17 12:42:40;;;;;;;23.30;20.17;;;23.60;84.00;;;;;;5011559;28;20048;-46
2022/08/17 12:45:20;;;;;;;23.30;19.23;;;23.60;83.20;;;;;;5051391;28;20036;-49
2022/08/17 12:47:45;;;;;;;19.33;17.55;;;23.50;83.40;;;;;;5063203;28;20060;-46
2022/08/17 12:50:14;;;;;;;21.90;19.30;;;23.50;83.50;;;;;;5029584;28;20083;-46
2022/08/17 12:52:42;;;;;;;20.08;18.05;;;23.60;83.40;;;;;;5059516;28;20032;-46
2022/08/17 12:55:17;;;;;;;18.90;17.02;;;23.80;83.40;;;;;;5063824;28;20039;-48
2022/08/17 12:57:47;;;;;;;21.45;19.10;;;23.90;82.80;;;;;;5064459;28;20068;-47
2022/08/17 13:00:18;;;;;;;22.67;17.92;;;24.20;82.00;;;;;;5059332;28;20032;-46
2022/08/17 13:02:52;;;;;;;18.85;16.85;;;24.40;81.30;;;;;;5064064;28;20433;-46
2022/08/17 13:05:34;;;;;;;17.30;14.45;;;24.50;80.60;;;;;;5051058;28;20025;-46
2022/08/17 13:08:04;;;;;;;16.15;14.50;;;24.60;80.60;;;;;;5062201;28;20035;-48
2022/08/17 13:10:34;;;;;;;15.23;13.35;;;24.70;81.00;;;;;;5064095;28;20029;-46
2022/08/17 13:13:04;;;;;;;;;;;24.80;81.20;;;;;;5064608;28;20021;-46
2022/08/17 13:15:42;;;;;;;25.38;17.88;;;24.70;80.20;;;;;;5064167;28;19916;-46
2022/08/17 13:18:43;;;;;;;18.50;15.57;;;24.40;79.80;;;;;;5066292;28;20392;-45
2022/08/17 13:21:21;;;;;;;29.02;19.27;;;24.40;81.40;;;;;;5058359;28;20036;-48
2022/08/17 13:24:06;;;;;;;20.42;17.30;;;24.20;81.30;;;;;;5047440;28;20489;-46
2022/08/17 13:27:02;;;;;;;19.23;17.33;;;24.00;82.00;;;;;;5060057;28;20043;-46
2022/08/17 13:29:43;;;;;;;20.70;17.48;;;23.90;82.10;;;;;;5031931;28;20927;-46
2022/08/17 13:32:13;;;;;;;21.13;16.23;;;23.80;81.70;;;;;;5060966;28;20024;-45
2022/08/17 13:34:53;;;;;;;23.00;18.48;;;23.90;82.00;;;;;;5052926;28;20041;-46
2022/08/17 13:37:33;;;;;;;23.42;16.63;;;23.80;81.90;;;;;;5065244;28;20102;-49